Time;durP1;ratioP1;P1;durP2;ratioP2;P2;SDS_P1;SDS_P2;PMS_P1;PMS_P2;Temp;Humidity;BMP_temperature;BMP_pressure;BME280_temperature;BME280_humidity;BME280_pressure;Samples;Min_cycle;Max_cycle;Signal;HPM_P1;HPM_P2
2023/12/20 00:02:17;;;;;;;18.23;8.05;;;;;;;;;;5013112;28;20233;-77
2023/12/20 00:04:45;;;;;;;17.13;7.65;;;;;;;;;;5012980;28;20202;-76
2023/12/20 00:07:12;;;;;;;34.90;11.57;;;;;;;;;;5012798;28;20332;-77
2023/12/20 00:09:39;;;;;;;43.53;12.52;;;;;;;;;;5013425;28;20198;-76
2023/12/20 00:12:06;;;;;;;35.35;11.38;;;;;;;;;;5012835;28;20209;-77
2023/12/20 00:14:34;;;;;;;43.25;11.68;;;;;;;;;;5012932;28;20204;-76
2023/12/20 00:17:01;;;;;;;25.33;9.13;;;;;;;;;;5011930;28;20317;-75
2023/12/20 00:19:28;;;;;;;32.22;12.50;;;;;;;;;;5012139;28;20216;-76
2023/12/20 00:21:55;;;;;;;29.92;10.93;;;;;;;;;;5013111;28;20275;-76
2023/12/20 00:24:23;;;;;;;53.05;16.42;;;;;;;;;;5013213;28;20205;-76
2023/12/20 00:26:49;;;;;;;28.73;11.73;;;;;;;;;;5011907;28;20644;-76
2023/12/20 00:29:17;;;;;;;112.45;37.70;;;;;;;;;;5012802;28;20218;-76
2023/12/20 00:31:44;;;;;;;37.20;12.70;;;;;;;;;;5012521;28;20212;-77
2023/12/20 00:34:11;;;;;;;46.95;14.95;;;;;;;;;;5012700;28;20205;-78
2023/12/20 00:36:38;;;;;;;28.48;11.85;;;;;;;;;;5012434;28;20213;-77
2023/12/20 00:39:06;;;;;;;39.58;13.65;;;;;;;;;;5012556;28;20201;-76
2023/12/20 00:41:33;;;;;;;29.38;12.73;;;;;;;;;;5012764;28;20217;-76
2023/12/20 00:44:01;;;;;;;38.40;14.77;;;;;;;;;;5012581;28;20221;-77
2023/12/20 00:46:27;;;;;;;25.00;11.80;;;;;;;;;;5011516;28;20236;-76
2023/12/20 00:48:55;;;;;;;42.95;14.77;;;;;;;;;;5012491;28;20212;-76
2023/12/20 00:51:22;;;;;;;79.07;26.98;;;;;;;;;;5012450;28;20201;-77
2023/12/20 00:53:54;;;;;;;28.05;13.02;;;;;;;;;;5012616;28;20233;-76
2023/12/20 00:56:21;;;;;;;21.70;11.13;;;;;;;;;;4995113;28;20197;-76
2023/12/20 00:58:48;;;;;;;40.55;14.15;;;;;;;;;;5012290;28;20565;-76
2023/12/20 01:01:15;;;;;;;58.53;20.53;;;;;;;;;;5012299;28;20205;-77
2023/12/20 01:03:44;;;;;;;29.25;12.57;;;;;;;;;;5012457;28;20237;-76
2023/12/20 01:06:11;;;;;;;28.77;12.57;;;;;;;;;;5012010;28;20198;-77
2023/12/20 01:08:38;;;;;;;24.27;12.02;;;;;;;;;;5012078;28;20201;-76
2023/12/20 01:11:05;;;;;;;23.75;11.95;;;;;;;;;;5011720;28;20244;-76
2023/12/20 01:13:33;;;;;;;39.23;15.43;;;;;;;;;;5011818;28;20197;-76
2023/12/20 01:16:00;;;;;;;30.45;12.70;;;;;;;;;;5011564;28;20210;-76
2023/12/20 01:18:27;;;;;;;23.53;11.87;;;;;;;;;;5011734;28;20201;-76
2023/12/20 01:20:54;;;;;;;23.02;12.10;;;;;;;;;;5011622;28;20244;-76
2023/12/20 01:23:22;;;;;;;66.40;24.58;;;;;;;;;;5011808;28;20224;-76
2023/12/20 01:25:48;;;;;;;44.25;14.88;;;;;;;;;;5011491;28;20217;-76
2023/12/20 01:28:16;;;;;;;53.78;16.42;;;;;;;;;;5011669;28;21035;-77
2023/12/20 01:30:43;;;;;;;89.45;34.10;;;;;;;;;;5011647;28;20296;-76
2023/12/20 01:33:10;;;;;;;28.15;12.77;;;;;;;;;;5011935;28;20243;-76
2023/12/20 01:35:37;;;;;;;26.45;12.95;;;;;;;;;;5011642;28;20205;-76
2023/12/20 01:38:05;;;;;;;21.73;11.38;;;;;;;;;;5011410;28;20647;-76
2023/12/20 01:40:32;;;;;;;23.20;11.52;;;;;;;;;;5010110;28;20209;-77
2023/12/20 01:43:08;;;;;;;24.02;11.75;;;;;;;;;;5011270;28;20217;-76
2023/12/20 01:45:35;;;;;;;40.03;13.30;;;;;;;;;;5010234;28;20188;-76
2023/12/20 01:48:04;;;;;;;28.77;12.68;;;;;;;;;;5011077;28;20220;-76
2023/12/20 01:50:31;;;;;;;30.70;12.77;;;;;;;;;;5010187;28;20704;-76
2023/12/20 01:53:00;;;;;;;30.52;13.50;;;;;;;;;;4993612;28;20306;-76
2023/12/20 01:55:30;;;;;;;33.20;14.93;;;;;;;;;;4994225;28;20209;-76
2023/12/20 01:57:58;;;;;;;61.53;17.90;;;;;;;;;;5010310;28;20185;-75
2023/12/20 02:00:27;;;;;;;38.53;14.60;;;;;;;;;;5011251;28;20220;-76
2023/12/20 02:02:57;;;;;;;30.00;13.32;;;;;;;;;;4993726;28;20217;-76
2023/12/20 02:05:29;;;;;;;55.05;19.85;;;;;;;;;;5011518;28;20193;-76
2023/12/20 02:07:57;;;;;;;31.17;12.83;;;;;;;;;;5010381;28;20204;-76
2023/12/20 02:10:24;;;;;;;27.05;12.50;;;;;;;;;;5011316;28;20232;-76
2023/12/20 02:12:52;;;;;;;29.73;13.88;;;;;;;;;;5009863;28;20205;-76
2023/12/20 02:15:19;;;;;;;41.25;17.02;;;;;;;;;;5010285;28;20186;-77
2023/12/20 02:17:47;;;;;;;31.83;13.68;;;;;;;;;;5011099;28;20201;-77
2023/12/20 02:20:14;;;;;;;24.58;12.00;;;;;;;;;;5010858;28;20708;-77
2023/12/20 02:22:41;;;;;;;30.48;13.82;;;;;;;;;;5011284;28;20229;-76
2023/12/20 02:25:08;;;;;;;27.65;12.48;;;;;;;;;;5011240;28;20201;-77
2023/12/20 02:27:36;;;;;;;32.42;14.77;;;;;;;;;;4993903;28;20209;-76
2023/12/20 02:30:03;;;;;;;35.88;14.93;;;;;;;;;;5010899;28;20220;-77
2023/12/20 02:32:31;;;;;;;35.75;14.65;;;;;;;;;;5011298;28;20282;-77
2023/12/20 02:34:58;;;;;;;38.30;15.43;;;;;;;;;;5010321;28;20208;-76
2023/12/20 02:37:25;;;;;;;39.92;16.63;;;;;;;;;;5011401;28;20208;-76
2023/12/20 02:39:52;;;;;;;32.43;14.93;;;;;;;;;;5011423;28;20717;-76
2023/12/20 02:42:19;;;;;;;46.85;15.82;;;;;;;;;;5014501;28;20953;-77
2023/12/20 02:44:46;;;;;;;30.70;15.27;;;;;;;;;;5014571;28;20221;-75
2023/12/20 02:47:13;;;;;;;66.85;23.98;;;;;;;;;;5014401;28;20666;-75
2023/12/20 02:49:40;;;;;;;89.53;23.67;;;;;;;;;;5013595;28;20667;-76
2023/12/20 02:52:08;;;;;;;46.70;17.77;;;;;;;;;;5014442;28;20248;-76
2023/12/20 02:54:34;;;;;;;34.47;16.03;;;;;;;;;;5014723;28;20316;-77
2023/12/20 02:57:02;;;;;;;35.10;16.48;;;;;;;;;;5014336;28;20205;-76
2023/12/20 02:59:29;;;;;;;62.67;21.52;;;;;;;;;;5014422;28;20278;-76
2023/12/20 03:01:56;;;;;;;45.10;17.10;;;;;;;;;;5014088;28;20213;-78
2023/12/20 03:04:23;;;;;;;37.53;16.50;;;;;;;;;;5014065;28;20217;-76
2023/12/20 03:06:51;;;;;;;44.43;18.13;;;;;;;;;;5014008;28;20201;-77
2023/12/20 03:09:18;;;;;;;51.90;19.92;;;;;;;;;;5014109;28;20213;-76
2023/12/20 03:11:45;;;;;;;63.45;19.55;;;;;;;;;;5014019;28;20189;-76
2023/12/20 03:14:12;;;;;;;36.53;15.10;;;;;;;;;;5013989;28;20213;-76
2023/12/20 03:16:39;;;;;;;40.35;17.55;;;;;;;;;;5013812;28;20213;-76
2023/12/20 03:19:06;;;;;;;38.33;17.10;;;;;;;;;;5014096;28;20590;-76
2023/12/20 03:21:33;;;;;;;85.93;27.53;;;;;;;;;;4996635;28;20198;-76
2023/12/20 03:24:00;;;;;;;101.68;37.15;;;;;;;;;;5013745;28;20237;-76
2023/12/20 03:26:28;;;;;;;41.28;17.38;;;;;;;;;;5013899;28;20201;-76
2023/12/20 03:28:54;;;;;;;32.50;16.07;;;;;;;;;;5013902;28;20205;-76
2023/12/20 03:31:22;;;;;;;33.65;17.08;;;;;;;;;;5013982;28;20194;-76
2023/12/20 03:33:50;;;;;;;35.85;17.67;;;;;;;;;;5013565;28;20209;-76
2023/12/20 03:36:18;;;;;;;62.53;21.07;;;;;;;;;;5013604;28;20209;-77
2023/12/20 03:38:45;;;;;;;37.73;17.30;;;;;;;;;;5013695;28;20559;-76
2023/12/20 03:41:13;;;;;;;37.22;16.73;;;;;;;;;;5013431;28;20198;-76
2023/12/20 03:43:40;;;;;;;37.40;18.02;;;;;;;;;;5013549;28;20232;-76
2023/12/20 03:46:10;;;;;;;63.35;24.95;;;;;;;;;;5013912;28;20569;-75
2023/12/20 03:48:37;;;;;;;45.25;17.80;;;;;;;;;;5013846;28;20205;-77
2023/12/20 03:51:04;;;;;;;39.88;17.60;;;;;;;;;;5013344;28;20216;-76
2023/12/20 03:53:31;;;;;;;34.60;16.57;;;;;;;;;;5012253;28;20237;-76
2023/12/20 03:55:59;;;;;;;46.77;20.27;;;;;;;;;;5013455;28;20216;-76
2023/12/20 03:58:26;;;;;;;75.37;23.27;;;;;;;;;;5013510;28;20201;-77
2023/12/20 04:00:53;;;;;;;40.65;17.33;;;;;;;;;;5013398;28;20202;-77
2023/12/20 04:03:20;;;;;;;35.70;17.15;;;;;;;;;;5013315;28;20232;-77
2023/12/20 04:05:48;;;;;;;32.77;16.63;;;;;;;;;;5012216;28;20205;-76
2023/12/20 04:08:15;;;;;;;38.53;17.70;;;;;;;;;;5013014;28;20209;-76
2023/12/20 04:10:42;;;;;;;30.80;16.07;;;;;;;;;;5013299;28;20198;-76
2023/12/20 04:13:09;;;;;;;50.53;19.77;;;;;;;;;;5013431;28;20207;-76
2023/12/20 04:15:37;;;;;;;36.10;16.63;;;;;;;;;;5013006;28;20655;-76
2023/12/20 04:18:04;;;;;;;62.43;24.43;;;;;;;;;;5012990;28;20209;-76
2023/12/20 04:20:31;;;;;;;39.67;16.40;;;;;;;;;;5013060;28;20197;-76
2023/12/20 04:22:58;;;;;;;37.00;16.50;;;;;;;;;;5012687;28;20213;-76
2023/12/20 04:25:25;;;;;;;39.07;17.00;;;;;;;;;;5012813;28;20201;-76
2023/12/20 04:27:52;;;;;;;59.57;21.40;;;;;;;;;;5012582;28;20225;-76
2023/12/20 04:30:20;;;;;;;83.63;22.53;;;;;;;;;;5012660;28;20849;-76
2023/12/20 04:32:47;;;;;;;49.35;19.02;;;;;;;;;;5012543;28;20252;-76
2023/12/20 04:35:14;;;;;;;44.87;17.50;;;;;;;;;;5012639;28;20216;-76
2023/12/20 04:37:41;;;;;;;32.95;15.40;;;;;;;;;;5012235;28;20201;-76
2023/12/20 04:40:09;;;;;;;129.27;30.67;;;;;;;;;;5012756;28;20220;-76
2023/12/20 04:42:36;;;;;;;56.47;18.52;;;;;;;;;;5012291;28;20625;-76
2023/12/20 04:45:04;;;;;;;47.72;17.35;;;;;;;;;;5012260;28;20725;-76
2023/12/20 04:47:31;;;;;;;53.83;17.13;;;;;;;;;;5012292;28;20204;-77
2023/12/20 04:49:58;;;;;;;253.73;70.77;;;;;;;;;;5012409;28;20206;-76
2023/12/20 04:52:26;;;;;;;47.28;16.70;;;;;;;;;;5012447;28;20193;-77
2023/12/20 04:54:53;;;;;;;59.55;17.23;;;;;;;;;;5012641;28;20213;-77
2023/12/20 04:57:20;;;;;;;56.87;18.83;;;;;;;;;;5012280;28;20214;-77
2023/12/20 04:59:47;;;;;;;56.17;17.58;;;;;;;;;;5012183;28;20569;-76
2023/12/20 05:02:14;;;;;;;79.93;23.10;;;;;;;;;;5012306;28;20213;-76
2023/12/20 05:04:41;;;;;;;61.43;17.93;;;;;;;;;;5011753;28;20236;-76
2023/12/20 05:07:08;;;;;;;32.30;14.23;;;;;;;;;;5011929;28;20607;-77
2023/12/20 05:09:36;;;;;;;39.93;15.83;;;;;;;;;;4989832;28;20210;-76
2023/12/20 05:12:04;;;;;;;74.80;25.83;;;;;;;;;;4993735;28;20721;-76
2023/12/20 05:14:31;;;;;;;47.67;15.53;;;;;;;;;;5009993;28;20237;-76
2023/12/20 05:16:58;;;;;;;37.67;14.00;;;;;;;;;;5011015;28;20969;-76
2023/12/20 05:19:26;;;;;;;20.23;12.05;;;;;;;;;;5010899;28;20243;-76
2023/12/20 05:21:53;;;;;;;56.83;21.33;;;;;;;;;;5010723;28;20319;-75
2023/12/20 05:24:21;;;;;;;67.80;19.33;;;;;;;;;;5010504;28;20233;-76
2023/12/20 05:26:48;;;;;;;56.00;18.73;;;;;;;;;;5010774;28;20237;-77
2023/12/20 05:29:19;;;;;;;55.70;15.43;;;;;;;;;;5011364;28;20233;-77
2023/12/20 05:31:46;;;;;;;311.17;85.90;;;;;;;;;;5010318;28;20229;-79
2023/12/20 05:34:14;;;;;;;79.85;35.45;;;;;;;;;;5011535;28;20279;-76
2023/12/20 05:36:41;;;;;;;57.33;20.60;;;;;;;;;;5010014;28;20233;-76
2023/12/20 05:39:08;;;;;;;34.70;14.33;;;;;;;;;;5010920;28;20229;-76
2023/12/20 05:41:35;;;;;;;23.87;11.60;;;;;;;;;;5010343;28;20237;-76
2023/12/20 05:44:02;;;;;;;21.03;11.93;;;;;;;;;;5011140;28;20328;-77
2023/12/20 05:46:29;;;;;;;22.05;11.98;;;;;;;;;;5010334;28;20942;-77
2023/12/20 05:48:56;;;;;;;16.25;10.32;;;;;;;;;;5009716;28;20213;-77
2023/12/20 05:51:23;;;;;;;26.48;12.80;;;;;;;;;;5010507;28;20237;-77
2023/12/20 05:53:51;;;;;;;22.65;12.43;;;;;;;;;;5009922;28;20634;-76
2023/12/20 05:56:18;;;;;;;20.75;12.43;;;;;;;;;;5010127;28;20318;-76
2023/12/20 05:58:45;;;;;;;20.83;11.97;;;;;;;;;;5010862;28;20295;-77
2023/12/20 06:01:14;;;;;;;27.55;12.63;;;;;;;;;;5010920;28;20232;-77
2023/12/20 06:03:42;;;;;;;17.95;10.82;;;;;;;;;;5010620;28;20233;-76
2023/12/20 06:06:09;;;;;;;29.70;13.07;;;;;;;;;;4993528;28;20229;-77
2023/12/20 06:08:43;;;;;;;86.50;32.78;;;;;;;;;;5010111;28;20792;-76
2023/12/20 06:11:11;;;;;;;55.83;26.67;;;;;;;;;;5010050;28;20596;-77
2023/12/20 06:13:38;;;;;;;50.90;18.73;;;;;;;;;;5021659;28;20286;-76
2023/12/20 06:16:07;;;;;;;26.55;14.38;;;;;;;;;;5020277;28;20229;-76
2023/12/20 06:18:36;;;;;;;26.53;14.33;;;;;;;;;;5013633;28;20241;-76
2023/12/20 06:21:03;;;;;;;22.87;12.83;;;;;;;;;;5018270;28;20311;-76
2023/12/20 06:23:30;;;;;;;81.33;19.87;;;;;;;;;;5018146;28;20579;-75
2023/12/20 06:25:57;;;;;;;25.17;10.70;;;;;;;;;;5012853;28;20692;-75
2023/12/20 06:28:24;;;;;;;17.30;9.05;;;;;;;;;;5016844;28;20229;-76
2023/12/20 06:30:52;;;;;;;25.42;10.65;;;;;;;;;;5013535;28;20710;-75
2023/12/20 06:33:21;;;;;;;58.72;19.67;;;;;;;;;;5013592;28;20252;-76
2023/12/20 06:35:49;;;;;;;88.53;18.98;;;;;;;;;;5013672;28;20283;-76
2023/12/20 06:38:18;;;;;;;32.35;12.10;;;;;;;;;;5012065;28;20265;-75
2023/12/20 06:40:45;;;;;;;27.70;12.55;;;;;;;;;;5012690;28;20228;-76
2023/12/20 06:43:13;;;;;;;23.20;10.77;;;;;;;;;;5013448;28;20302;-76
2023/12/20 06:45:58;;;;;;;37.00;12.70;;;;;;;;;;5013815;28;20248;-76
2023/12/20 06:48:26;;;;;;;32.65;11.13;;;;;;;;;;5011756;28;20237;-76
2023/12/20 06:50:52;;;;;;;26.60;11.43;;;;;;;;;;4996352;28;20225;-76
2023/12/20 06:53:20;;;;;;;35.37;11.50;;;;;;;;;;5012439;28;20314;-76
2023/12/20 06:55:47;;;;;;;120.03;26.58;;;;;;;;;;5013293;28;20237;-76
2023/12/20 06:58:14;;;;;;;164.43;43.38;;;;;;;;;;5013229;28;20236;-77
2023/12/20 07:00:41;;;;;;;96.97;35.17;;;;;;;;;;4994551;28;20233;-76
2023/12/20 07:03:09;;;;;;;30.27;14.95;;;;;;;;;;5012940;28;20237;-76
2023/12/20 07:05:36;;;;;;;28.50;10.77;;;;;;;;;;5013292;28;20237;-76
2023/12/20 07:08:03;;;;;;;19.88;9.10;;;;;;;;;;5013403;28;20236;-77
2023/12/20 07:10:31;;;;;;;11.13;7.07;;;;;;;;;;5012785;28;20308;-76
2023/12/20 07:12:58;;;;;;;14.65;8.15;;;;;;;;;;4997623;28;20229;-77
2023/12/20 07:15:26;;;;;;;32.40;11.35;;;;;;;;;;4996037;28;20240;-76
2023/12/20 07:17:54;;;;;;;20.88;9.20;;;;;;;;;;4983471;28;20248;-76
2023/12/20 07:20:21;;;;;;;24.15;10.13;;;;;;;;;;5012815;28;20295;-76
2023/12/20 07:22:48;;;;;;;20.80;7.57;;;;;;;;;;5012619;28;20257;-76
2023/12/20 07:25:15;;;;;;;39.67;11.05;;;;;;;;;;5011723;28;20774;-76
2023/12/20 07:27:43;;;;;;;38.53;10.60;;;;;;;;;;5014307;28;20267;-76
2023/12/20 07:30:11;;;;;;;20.27;8.02;;;;;;;;;;5033115;28;20343;-76
2023/12/20 07:32:39;;;;;;;23.67;9.43;;;;;;;;;;5032468;28;20232;-76
2023/12/20 07:35:07;;;;;;;75.70;22.87;;;;;;;;;;5032934;28;20216;-76
2023/12/20 07:37:34;;;;;;;70.53;16.13;;;;;;;;;;5025614;28;20236;-75
2023/12/20 07:40:01;;;;;;;35.63;11.50;;;;;;;;;;5013073;28;20267;-77
2023/12/20 07:42:28;;;;;;;24.50;8.93;;;;;;;;;;5012580;28;20245;-76
2023/12/20 07:44:55;;;;;;;215.60;50.63;;;;;;;;;;5013110;28;20260;-76
2023/12/20 07:47:22;;;;;;;58.58;14.35;;;;;;;;;;5012193;28;20232;-76
2023/12/20 07:49:51;;;;;;;45.00;12.23;;;;;;;;;;5012984;28;20225;-76
2023/12/20 07:52:19;;;;;;;27.75;9.35;;;;;;;;;;5010784;28;20245;-76
2023/12/20 07:54:46;;;;;;;85.82;30.92;;;;;;;;;;4995250;28;20315;-76
2023/12/20 07:57:13;;;;;;;55.65;15.20;;;;;;;;;;5011769;28;20244;-76
2023/12/20 07:59:40;;;;;;;14.32;6.30;;;;;;;;;;5026482;28;20228;-77
2023/12/20 08:02:07;;;;;;;18.23;5.65;;;;;;;;;;5032008;28;20574;-76
2023/12/20 08:04:35;;;;;;;10.68;4.70;;;;;;;;;;5020358;28;20295;-76
2023/12/20 08:07:03;;;;;;;22.17;9.07;;;;;;;;;;5011272;28;20224;-76
2023/12/20 08:09:31;;;;;;;25.30;6.25;;;;;;;;;;5011992;28;20299;-75
2023/12/20 08:11:59;;;;;;;17.50;5.50;;;;;;;;;;5011614;28;20609;-76
2023/12/20 08:14:26;;;;;;;13.95;4.55;;;;;;;;;;5012092;28;20233;-76
2023/12/20 08:16:53;;;;;;;46.67;12.65;;;;;;;;;;5012265;28;20249;-76
2023/12/20 08:19:20;;;;;;;37.72;8.90;;;;;;;;;;5011654;28;20217;-76
2023/12/20 08:21:48;;;;;;;31.55;7.53;;;;;;;;;;5012227;28;20225;-76
2023/12/20 08:24:15;;;;;;;33.50;9.40;;;;;;;;;;5011191;28;20229;-75
2023/12/20 08:26:42;;;;;;;34.83;9.57;;;;;;;;;;5011211;28;20626;-76
2023/12/20 08:29:09;;;;;;;94.28;21.75;;;;;;;;;;5021085;28;20628;-76
2023/12/20 08:31:36;;;;;;;35.58;9.55;;;;;;;;;;5031776;28;20231;-76
2023/12/20 08:34:03;;;;;;;43.33;10.25;;;;;;;;;;5031160;28;20232;-77
2023/12/20 08:36:33;;;;;;;32.78;9.02;;;;;;;;;;5031779;28;20716;-76
2023/12/20 08:39:00;;;;;;;50.95;16.90;;;;;;;;;;5030284;28;20259;-76
2023/12/20 08:41:27;;;;;;;48.37;11.17;;;;;;;;;;5031598;28;20220;-76
2023/12/20 08:43:55;;;;;;;36.05;8.50;;;;;;;;;;5031425;28;20220;-76
2023/12/20 08:46:22;;;;;;;83.20;25.90;;;;;;;;;;5031806;28;20240;-75
2023/12/20 08:48:49;;;;;;;103.80;39.78;;;;;;;;;;5026141;28;20260;-76
2023/12/20 08:51:16;;;;;;;41.67;10.48;;;;;;;;;;5012824;28;21308;-76
2023/12/20 08:53:45;;;;;;;12.30;6.45;;;;;;;;;;5022412;28;20255;-76
2023/12/20 08:56:12;;;;;;;9.77;5.50;;;;;;;;;;5032365;28;20543;-76
2023/12/20 08:58:39;;;;;;;9.77;5.60;;;;;;;;;;5031848;28;20201;-77
2023/12/20 09:01:07;;;;;;;15.25;6.07;;;;;;;;;;5032089;28;20227;-76
2023/12/20 09:03:34;;;;;;;33.00;9.30;;;;;;;;;;5031721;28;20606;-76
2023/12/20 09:06:02;;;;;;;14.05;5.35;;;;;;;;;;5031891;28;20228;-76
2023/12/20 09:08:29;;;;;;;11.07;5.07;;;;;;;;;;5027203;28;20213;-76
2023/12/20 09:10:57;;;;;;;78.38;25.70;;;;;;;;;;5010858;28;20194;-76
2023/12/20 09:13:28;;;;;;;21.57;6.90;;;;;;;;;;5012026;28;20729;-76
2023/12/20 09:15:55;;;;;;;19.93;7.43;;;;;;;;;;5006809;28;20201;-76
2023/12/20 09:18:22;;;;;;;27.27;9.45;;;;;;;;;;5031437;28;20209;-76
2023/12/20 09:20:50;;;;;;;56.70;16.63;;;;;;;;;;5030309;28;20204;-76
2023/12/20 09:23:18;;;;;;;59.65;12.55;;;;;;;;;;5031614;28;20207;-75
2023/12/20 09:25:45;;;;;;;25.33;7.53;;;;;;;;;;5031662;28;20221;-76
2023/12/20 09:28:12;;;;;;;24.58;8.10;;;;;;;;;;5031706;28;20200;-76
2023/12/20 09:30:40;;;;;;;170.48;35.15;;;;;;;;;;5031386;28;20205;-76
2023/12/20 09:33:07;;;;;;;313.33;87.22;;;;;;;;;;5012634;28;20206;-76
2023/12/20 09:35:36;;;;;;;31.08;14.75;;;;;;;;;;5011557;28;20205;-76
2023/12/20 09:38:03;;;;;;;30.85;8.25;;;;;;;;;;5024894;28;20213;-76
2023/12/20 09:40:32;;;;;;;17.92;6.07;;;;;;;;;;5031345;28;20204;-76
2023/12/20 09:43:04;;;;;;;8.85;4.50;;;;;;;;;;5031296;28;20208;-76
2023/12/20 09:45:32;;;;;;;8.18;4.80;;;;;;;;;;5030337;28;20293;-76
2023/12/20 09:47:59;;;;;;;52.78;9.85;;;;;;;;;;5029915;28;20212;-76
2023/12/20 09:50:27;;;;;;;13.05;4.40;;;;;;;;;;5030068;28;20204;-76
2023/12/20 09:52:58;;;;;;;23.75;6.40;;;;;;;;;;5030994;28;20252;-76
2023/12/20 09:55:25;;;;;;;16.00;4.90;;;;;;;;;;5023763;28;20205;-76
2023/12/20 09:57:52;;;;;;;108.57;25.38;;;;;;;;;;4993866;28;20998;-76
2023/12/20 10:00:20;;;;;;;46.05;10.45;;;;;;;;;;5011197;28;20209;-76
2023/12/20 10:02:56;;;;;;;29.60;8.23;;;;;;;;;;5009854;28;20576;-75
2023/12/20 10:05:34;;;;;;;43.70;11.00;;;;;;;;;;5011203;28;20220;-75
2023/12/20 10:08:02;;;;;;;106.20;29.45;;;;;;;;;;5011238;28;20205;-76
2023/12/20 10:10:29;;;;;;;34.78;8.20;;;;;;;;;;5011451;28;20197;-76
2023/12/20 10:13:11;;;;;;;22.30;6.40;;;;;;;;;;5011558;28;20659;-76
2023/12/20 10:15:40;;;;;;;21.20;6.10;;;;;;;;;;5011470;28;20201;-77
2023/12/20 10:18:08;;;;;;;67.60;17.42;;;;;;;;;;5011182;28;20193;-76
2023/12/20 10:20:36;;;;;;;26.95;7.95;;;;;;;;;;5011042;28;20217;-76
2023/12/20 10:23:04;;;;;;;24.80;7.15;;;;;;;;;;5011207;28;20197;-76
2023/12/20 10:25:31;;;;;;;16.58;5.32;;;;;;;;;;5010113;28;20221;-76
2023/12/20 10:28:34;;;;;;;23.45;7.72;;;;;;;;;;5015590;28;20192;-78
2023/12/20 10:31:01;;;;;;;35.38;8.15;;;;;;;;;;4975155;28;20221;-75
2023/12/20 10:33:32;;;;;;;23.40;7.50;;;;;;;;;;4989065;28;20275;-75
2023/12/20 10:36:00;;;;;;;10.02;4.32;;;;;;;;;;4989044;28;20224;-76
2023/12/20 10:38:29;;;;;;;8.38;4.07;;;;;;;;;;4988926;28;20711;-76
2023/12/20 10:41:00;;;;;;;34.05;8.15;;;;;;;;;;4994924;28;20209;-76
2023/12/20 10:43:28;;;;;;;15.17;4.73;;;;;;;;;;5005840;28;20206;-76
2023/12/20 10:45:57;;;;;;;12.85;4.10;;;;;;;;;;4973095;28;20225;-76
2023/12/20 10:48:28;;;;;;;9.15;3.67;;;;;;;;;;4988891;28;21014;-75
2023/12/20 10:50:57;;;;;;;19.50;5.77;;;;;;;;;;5005341;28;20658;-76
2023/12/20 10:53:25;;;;;;;11.52;2.80;;;;;;;;;;5008241;28;20241;-76
2023/12/20 10:55:58;;;;;;;9.17;3.07;;;;;;;;;;4965558;28;20205;-76
2023/12/20 10:58:26;;;;;;;4.88;2.28;;;;;;;;;;5006888;28;20211;-76
2023/12/20 11:01:01;;;;;;;23.20;5.27;;;;;;;;;;4988885;28;20694;-75
2023/12/20 11:03:32;;;;;;;22.13;5.00;;;;;;;;;;4976522;28;20213;-75
2023/12/20 11:06:10;;;;;;;22.90;4.85;;;;;;;;;;4992760;28;20237;-76
2023/12/20 11:08:48;;;;;;;8.07;2.65;;;;;;;;;;4997136;28;20291;-76
2023/12/20 11:11:43;;;;;;;19.15;4.07;;;;;;;;;;5013115;28;20760;-77
2023/12/20 11:14:22;;;;;;;17.92;4.85;;;;;;;;;;4996992;28;20205;-76
2023/12/20 11:16:51;;;;;;;17.17;4.55;;;;;;;;;;5013299;28;20204;-76
2023/12/20 11:19:21;;;;;;;10.95;3.65;;;;;;;;;;5014225;28;20207;-76
2023/12/20 11:21:48;;;;;;;17.07;4.77;;;;;;;;;;5013961;28;20678;-76
2023/12/20 11:24:16;;;;;;;52.15;11.45;;;;;;;;;;5013977;28;20216;-76
2023/12/20 11:26:47;;;;;;;41.53;7.68;;;;;;;;;;5013115;28;20236;-76
2023/12/20 11:29:36;;;;;;;10.83;3.20;;;;;;;;;;5012500;28;20220;-76
2023/12/20 11:32:24;;;;;;;21.30;5.05;;;;;;;;;;5012940;28;20212;-76
2023/12/20 11:34:54;;;;;;;24.48;6.05;;;;;;;;;;5013897;28;20296;-76
2023/12/20 11:37:22;;;;;;;22.95;4.95;;;;;;;;;;4996858;28;20189;-76
2023/12/20 11:39:56;;;;;;;38.00;7.78;;;;;;;;;;5013984;28;20215;-77
2023/12/20 11:42:23;;;;;;;28.75;7.38;;;;;;;;;;5013599;28;20207;-76
2023/12/20 11:44:50;;;;;;;225.27;52.65;;;;;;;;;;5027034;28;20196;-76
2023/12/20 11:47:19;;;;;;;34.58;8.05;;;;;;;;;;5033338;28;20224;-76
2023/12/20 11:49:49;;;;;;;46.47;10.82;;;;;;;;;;5033577;28;20212;-77
2023/12/20 11:52:16;;;;;;;23.75;6.57;;;;;;;;;;5033350;28;20193;-76
2023/12/20 11:54:43;;;;;;;70.25;19.20;;;;;;;;;;5014477;28;20230;-76
2023/12/20 11:57:11;;;;;;;143.30;38.78;;;;;;;;;;5006328;28;20208;-76
2023/12/20 11:59:37;;;;;;;14.65;6.50;;;;;;;;;;5033105;28;20208;-76
2023/12/20 12:02:05;;;;;;;20.13;6.32;;;;;;;;;;5033126;28;20284;-76
2023/12/20 12:04:32;;;;;;;10.88;4.75;;;;;;;;;;5033159;28;20224;-76
2023/12/20 12:07:00;;;;;;;6.13;3.77;;;;;;;;;;5033046;28;20701;-76
2023/12/20 12:09:27;;;;;;;5.88;3.20;;;;;;;;;;5015726;28;20193;-76
2023/12/20 12:11:54;;;;;;;21.10;5.10;;;;;;;;;;5032168;28;20201;-77
2023/12/20 12:14:21;;;;;;;31.10;7.43;;;;;;;;;;5032022;28;20740;-76
2023/12/20 12:16:50;;;;;;;11.52;4.18;;;;;;;;;;5033309;28;20204;-76
2023/12/20 12:19:24;;;;;;;16.63;5.40;;;;;;;;;;5032036;28;20208;-76
2023/12/20 12:22:05;;;;;;;24.27;6.07;;;;;;;;;;5031794;28;20204;-76
2023/12/20 12:24:32;;;;;;;27.35;6.63;;;;;;;;;;5032503;28;20223;-76
2023/12/20 12:26:59;;;;;;;25.90;6.00;;;;;;;;;;5032952;28;20228;-76
2023/12/20 12:29:27;;;;;;;21.50;5.95;;;;;;;;;;5032840;28;20255;-76
2023/12/20 12:31:54;;;;;;;44.07;12.40;;;;;;;;;;5031699;28;20201;-77
2023/12/20 12:34:21;;;;;;;29.47;7.00;;;;;;;;;;5031582;28;20192;-76
2023/12/20 12:36:49;;;;;;;15.47;4.10;;;;;;;;;;5031380;28;20197;-76
2023/12/20 12:39:18;;;;;;;12.70;3.22;;;;;;;;;;5032367;28;20196;-76
2023/12/20 12:41:45;;;;;;;11.77;3.80;;;;;;;;;;5015250;28;20205;-76
2023/12/20 12:44:12;;;;;;;20.92;4.93;;;;;;;;;;5030609;28;20205;-76
2023/12/20 12:46:49;;;;;;;23.60;4.10;;;;;;;;;;5012836;28;20229;-76
2023/12/20 12:49:17;;;;;;;16.43;4.47;;;;;;;;;;5011425;28;20208;-76
2023/12/20 12:51:44;;;;;;;23.90;5.90;;;;;;;;;;5012751;28;20251;-76
2023/12/20 12:54:13;;;;;;;58.43;12.33;;;;;;;;;;5004292;28;20264;-76
2023/12/20 12:56:40;;;;;;;58.50;10.43;;;;;;;;;;4995162;28;20201;-78
2023/12/20 12:59:07;;;;;;;18.70;4.50;;;;;;;;;;5012042;28;20201;-77
2023/12/20 13:01:34;;;;;;;152.17;33.13;;;;;;;;;;5012167;28;20677;-77
2023/12/20 13:04:03;;;;;;;56.97;15.60;;;;;;;;;;5012149;28;20197;-77
2023/12/20 13:06:31;;;;;;;23.67;8.20;;;;;;;;;;5012467;28;20224;-76
2023/12/20 13:08:58;;;;;;;10.80;3.65;;;;;;;;;;5012180;28;20317;-76
2023/12/20 13:11:25;;;;;;;9.88;3.50;;;;;;;;;;4994921;28;20204;-76
2023/12/20 13:13:52;;;;;;;7.33;3.00;;;;;;;;;;5012064;28;20300;-76
2023/12/20 13:16:19;;;;;;;18.67;7.47;;;;;;;;;;5011957;28;20213;-77
2023/12/20 13:18:46;;;;;;;5.37;2.37;;;;;;;;;;4993434;28;20291;-77
2023/12/20 13:21:14;;;;;;;9.93;3.03;;;;;;;;;;5000865;28;20321;-76
2023/12/20 13:23:41;;;;;;;8.63;2.97;;;;;;;;;;5011496;28;20682;-76
2023/12/20 13:26:08;;;;;;;28.07;8.97;;;;;;;;;;5010666;28;20241;-76
2023/12/20 13:28:35;;;;;;;11.88;3.50;;;;;;;;;;4993634;28;20256;-77
2023/12/20 13:31:02;;;;;;;8.95;2.50;;;;;;;;;;5009831;28;20233;-76
2023/12/20 13:33:30;;;;;;;14.03;3.80;;;;;;;;;;5009608;28;20239;-76
2023/12/20 13:35:58;;;;;;;7.30;2.85;;;;;;;;;;5009473;28;20233;-76
2023/12/20 13:54:11;;;;;;;53.03;10.57;;;;;;;;;;5032180;23;20259;-77
2023/12/20 13:56:38;;;;;;;43.90;9.57;;;;;;;;;;4997370;28;20228;-76
2023/12/20 13:59:21;;;;;;;46.97;13.23;;;;;;;;;;5010367;28;20964;-76
2023/12/20 14:01:50;;;;;;;44.07;8.80;;;;;;;;;;4999447;28;20230;-75
2023/12/20 14:04:17;;;;;;;32.40;6.60;;;;;;;;;;4999201;28;20236;-76
2023/12/20 14:07:05;;;;;;;41.80;10.10;;;;;;;;;;4999883;28;20259;-76
2023/12/20 14:09:32;;;;;;;33.20;10.73;;;;;;;;;;4982133;28;20257;-76
2023/12/20 14:11:59;;;;;;;28.30;5.90;;;;;;;;;;5007098;28;20233;-76
2023/12/20 14:14:26;;;;;;;19.73;5.10;;;;;;;;;;5010112;28;20233;-76
2023/12/20 14:16:53;;;;;;;16.03;3.90;;;;;;;;;;4991444;28;20225;-76
2023/12/20 14:19:20;;;;;;;32.93;6.83;;;;;;;;;;5010147;28;20233;-75
2023/12/20 14:21:48;;;;;;;188.70;47.90;;;;;;;;;;5010295;28;20233;-76
2023/12/20 14:24:15;;;;;;;70.23;21.40;;;;;;;;;;5009971;28;20237;-76
2023/12/20 14:26:42;;;;;;;27.93;6.23;;;;;;;;;;5009604;28;20237;-76
2023/12/20 14:29:09;;;;;;;10.00;3.63;;;;;;;;;;5009283;28;20308;-75
2023/12/20 14:31:38;;;;;;;10.03;3.30;;;;;;;;;;5009332;28;20244;-75
2023/12/20 14:34:06;;;;;;;24.83;7.77;;;;;;;;;;5009128;28;20307;-75
2023/12/20 14:36:34;;;;;;;42.37;8.93;;;;;;;;;;5011135;28;20225;-75
2023/12/20 14:39:03;;;;;;;14.07;4.43;;;;;;;;;;4995641;28;20249;-75
2023/12/20 14:41:30;;;;;;;32.67;6.67;;;;;;;;;;4999889;28;20229;-76
2023/12/20 14:43:59;;;;;;;14.50;3.97;;;;;;;;;;5003497;28;20256;-76